sensor_id;sensor_type;location;lat;lon;timestamp;P1;durP1;ratioP1;P2;durP2;ratioP2
75542;SDS011;64129;53.508;10.476;2023-11-21T00:02:02;9.30;;;6.03;;
75542;SDS011;64129;53.508;10.476;2023-11-21T00:04:28;10.43;;;6.57;;
75542;SDS011;64129;53.508;10.476;2023-11-21T00:06:55;12.18;;;7.50;;
75542;SDS011;64129;53.508;10.476;2023-11-21T00:09:22;12.88;;;6.88;;
75542;SDS011;64129;53.508;10.476;2023-11-21T00:11:49;12.05;;;7.43;;
75542;SDS011;64129;53.508;10.476;2023-11-21T00:14:15;11.60;;;7.22;;
75542;SDS011;64129;53.508;10.476;2023-11-21T00:16:42;13.57;;;7.38;;
75542;SDS011;64129;53.508;10.476;2023-11-21T00:19:08;11.35;;;7.03;;
75542;SDS011;64129;53.508;10.476;2023-11-21T00:21:35;15.38;;;7.60;;
75542;SDS011;64129;53.508;10.476;2023-11-21T00:24:01;15.57;;;7.95;;
75542;SDS011;64129;53.508;10.476;2023-11-21T00:26:28;12.27;;;7.88;;
75542;SDS011;64129;53.508;10.476;2023-11-21T00:29:00;11.30;;;7.38;;
75542;SDS011;64129;53.508;10.476;2023-11-21T00:31:27;10.73;;;7.47;;
75542;SDS011;64129;53.508;10.476;2023-11-21T00:33:53;11.63;;;7.32;;
75542;SDS011;64129;53.508;10.476;2023-11-21T00:36:21;11.60;;;7.47;;
75542;SDS011;64129;53.508;10.476;2023-11-21T00:38:48;12.02;;;7.30;;
75542;SDS011;64129;53.508;10.476;2023-11-21T00:41:14;12.93;;;7.55;;
75542;SDS011;64129;53.508;10.476;2023-11-21T00:43:41;11.40;;;7.53;;
75542;SDS011;64129;53.508;10.476;2023-11-21T00:46:07;12.73;;;7.57;;
75542;SDS011;64129;53.508;10.476;2023-11-21T00:48:34;11.95;;;7.15;;
75542;SDS011;64129;53.508;10.476;2023-11-21T00:51:01;10.05;;;7.43;;
75542;SDS011;64129;53.508;10.476;2023-11-21T00:53:27;11.73;;;7.15;;
75542;SDS011;64129;53.508;10.476;2023-11-21T00:55:53;12.43;;;7.00;;
75542;SDS011;64129;53.508;10.476;2023-11-21T00:58:24;12.65;;;7.97;;
75542;SDS011;64129;53.508;10.476;2023-11-21T01:00:51;11.48;;;7.13;;
75542;SDS011;64129;53.508;10.476;2023-11-21T01:03:17;11.95;;;7.45;;
75542;SDS011;64129;53.508;10.476;2023-11-21T01:05:44;9.95;;;7.35;;
75542;SDS011;64129;53.508;10.476;2023-11-21T01:08:11;12.65;;;7.57;;
75542;SDS011;64129;53.508;10.476;2023-11-21T01:10:38;10.98;;;6.10;;
75542;SDS011;64129;53.508;10.476;2023-11-21T01:13:04;10.88;;;6.95;;
75542;SDS011;64129;53.508;10.476;2023-11-21T01:15:31;13.48;;;7.55;;
75542;SDS011;64129;53.508;10.476;2023-11-21T01:17:58;11.63;;;7.47;;
75542;SDS011;64129;53.508;10.476;2023-11-21T01:20:24;9.65;;;6.25;;
75542;SDS011;64129;53.508;10.476;2023-11-21T01:22:51;10.90;;;7.18;;
75542;SDS011;64129;53.508;10.476;2023-11-21T01:25:17;10.75;;;7.63;;
75542;SDS011;64129;53.508;10.476;2023-11-21T01:27:44;8.93;;;6.93;;
75542;SDS011;64129;53.508;10.476;2023-11-21T01:30:11;9.93;;;6.43;;
75542;SDS011;64129;53.508;10.476;2023-11-21T01:32:37;9.63;;;6.25;;
75542;SDS011;64129;53.508;10.476;2023-11-21T01:35:05;8.88;;;6.10;;
75542;SDS011;64129;53.508;10.476;2023-11-21T01:37:33;10.15;;;5.90;;
75542;SDS011;64129;53.508;10.476;2023-11-21T01:39:59;8.38;;;6.20;;
75542;SDS011;64129;53.508;10.476;2023-11-21T01:44:55;8.75;;;5.43;;
75542;SDS011;64129;53.508;10.476;2023-11-21T01:47:22;8.20;;;5.47;;
75542;SDS011;64129;53.508;10.476;2023-11-21T01:49:48;11.25;;;5.70;;
75542;SDS011;64129;53.508;10.476;2023-11-21T01:52:15;7.60;;;5.63;;
75542;SDS011;64129;53.508;10.476;2023-11-21T01:54:41;8.15;;;5.82;;
75542;SDS011;64129;53.508;10.476;2023-11-21T01:57:08;8.45;;;5.55;;
75542;SDS011;64129;53.508;10.476;2023-11-21T01:59:39;7.55;;;5.75;;
75542;SDS011;64129;53.508;10.476;2023-11-21T02:02:08;9.27;;;6.25;;
75542;SDS011;64129;53.508;10.476;2023-11-21T02:04:37;8.90;;;6.85;;
75542;SDS011;64129;53.508;10.476;2023-11-21T02:07:03;8.68;;;5.45;;
75542;SDS011;64129;53.508;10.476;2023-11-21T02:09:34;9.13;;;5.80;;
75542;SDS011;64129;53.508;10.476;2023-11-21T02:12:01;8.57;;;5.55;;
75542;SDS011;64129;53.508;10.476;2023-11-21T02:14:28;8.00;;;5.43;;
75542;SDS011;64129;53.508;10.476;2023-11-21T02:16:55;8.50;;;6.15;;
75542;SDS011;64129;53.508;10.476;2023-11-21T02:21:52;8.18;;;5.95;;
75542;SDS011;64129;53.508;10.476;2023-11-21T02:24:22;10.15;;;5.72;;
75542;SDS011;64129;53.508;10.476;2023-11-21T02:26:49;7.68;;;5.47;;
75542;SDS011;64129;53.508;10.476;2023-11-21T02:29:20;10.23;;;6.00;;
75542;SDS011;64129;53.508;10.476;2023-11-21T02:31:54;13.27;;;6.15;;
75542;SDS011;64129;53.508;10.476;2023-11-21T02:34:21;9.68;;;6.72;;
75542;SDS011;64129;53.508;10.476;2023-11-21T02:36:49;9.15;;;6.18;;
75542;SDS011;64129;53.508;10.476;2023-11-21T02:39:18;7.55;;;5.72;;
75542;SDS011;64129;53.508;10.476;2023-11-21T02:41:48;9.02;;;6.15;;
75542;SDS011;64129;53.508;10.476;2023-11-21T02:44:15;10.30;;;6.28;;
75542;SDS011;64129;53.508;10.476;2023-11-21T02:46:41;10.18;;;6.72;;
75542;SDS011;64129;53.508;10.476;2023-11-21T02:49:08;8.02;;;6.15;;
75542;SDS011;64129;53.508;10.476;2023-11-21T02:51:36;9.95;;;5.97;;
75542;SDS011;64129;53.508;10.476;2023-11-21T02:54:05;8.57;;;5.82;;
75542;SDS011;64129;53.508;10.476;2023-11-21T02:56:34;10.07;;;6.75;;
75542;SDS011;64129;53.508;10.476;2023-11-21T02:59:02;7.45;;;5.43;;
75542;SDS011;64129;53.508;10.476;2023-11-21T03:01:28;9.55;;;6.07;;
75542;SDS011;64129;53.508;10.476;2023-11-21T03:03:55;8.07;;;6.05;;
75542;SDS011;64129;53.508;10.476;2023-11-21T03:06:22;8.65;;;5.80;;
75542;SDS011;64129;53.508;10.476;2023-11-21T03:08:49;10.60;;;6.18;;
75542;SDS011;64129;53.508;10.476;2023-11-21T03:11:17;10.73;;;5.82;;
75542;SDS011;64129;53.508;10.476;2023-11-21T03:13:44;9.40;;;5.88;;
75542;SDS011;64129;53.508;10.476;2023-11-21T03:16:11;12.10;;;7.30;;
75542;SDS011;64129;53.508;10.476;2023-11-21T03:18:39;9.63;;;6.30;;
75542;SDS011;64129;53.508;10.476;2023-11-21T03:21:05;9.60;;;6.35;;
75542;SDS011;64129;53.508;10.476;2023-11-21T03:23:35;12.05;;;6.47;;
75542;SDS011;64129;53.508;10.476;2023-11-21T03:26:03;10.07;;;6.25;;
75542;SDS011;64129;53.508;10.476;2023-11-21T03:28:30;8.25;;;6.28;;
75542;SDS011;64129;53.508;10.476;2023-11-21T03:30:56;9.15;;;6.75;;
75542;SDS011;64129;53.508;10.476;2023-11-21T03:33:23;9.50;;;5.88;;
75542;SDS011;64129;53.508;10.476;2023-11-21T03:35:50;8.95;;;6.22;;
75542;SDS011;64129;53.508;10.476;2023-11-21T03:38:17;11.77;;;5.90;;
75542;SDS011;64129;53.508;10.476;2023-11-21T03:40:44;10.45;;;6.50;;
75542;SDS011;64129;53.508;10.476;2023-11-21T03:43:10;10.63;;;6.70;;
75542;SDS011;64129;53.508;10.476;2023-11-21T03:45:37;9.75;;;6.95;;
75542;SDS011;64129;53.508;10.476;2023-11-21T03:48:04;10.98;;;7.22;;
75542;SDS011;64129;53.508;10.476;2023-11-21T03:50:31;16.13;;;8.02;;
75542;SDS011;64129;53.508;10.476;2023-11-21T03:52:58;10.18;;;6.70;;
75542;SDS011;64129;53.508;10.476;2023-11-21T03:55:24;11.15;;;5.88;;
75542;SDS011;64129;53.508;10.476;2023-11-21T03:57:51;11.30;;;6.93;;
75542;SDS011;64129;53.508;10.476;2023-11-21T04:00:18;9.98;;;7.15;;
75542;SDS011;64129;53.508;10.476;2023-11-21T04:02:46;12.55;;;6.40;;
75542;SDS011;64129;53.508;10.476;2023-11-21T04:05:13;10.30;;;6.57;;
75542;SDS011;64129;53.508;10.476;2023-11-21T04:07:39;12.20;;;7.00;;
75542;SDS011;64129;53.508;10.476;2023-11-21T04:10:06;12.65;;;6.70;;
75542;SDS011;64129;53.508;10.476;2023-11-21T04:12:35;10.57;;;6.50;;
75542;SDS011;64129;53.508;10.476;2023-11-21T04:15:02;9.43;;;6.47;;
75542;SDS011;64129;53.508;10.476;2023-11-21T04:17:29;9.55;;;5.75;;
75542;SDS011;64129;53.508;10.476;2023-11-21T04:19:57;10.40;;;6.15;;
75542;SDS011;64129;53.508;10.476;2023-11-21T04:22:23;10.02;;;7.00;;
75542;SDS011;64129;53.508;10.476;2023-11-21T04:24:50;10.35;;;6.70;;
75542;SDS011;64129;53.508;10.476;2023-11-21T04:27:16;10.32;;;6.93;;
75542;SDS011;64129;53.508;10.476;2023-11-21T04:29:46;12.63;;;6.78;;
75542;SDS011;64129;53.508;10.476;2023-11-21T04:32:13;11.00;;;6.70;;
75542;SDS011;64129;53.508;10.476;2023-11-21T04:34:39;10.10;;;6.35;;
75542;SDS011;64129;53.508;10.476;2023-11-21T04:37:06;13.30;;;7.05;;
75542;SDS011;64129;53.508;10.476;2023-11-21T04:39:32;9.30;;;6.00;;
75542;SDS011;64129;53.508;10.476;2023-11-21T04:41:59;8.85;;;6.60;;
75542;SDS011;64129;53.508;10.476;2023-11-21T04:44:25;9.10;;;6.18;;
75542;SDS011;64129;53.508;10.476;2023-11-21T04:46:52;9.18;;;6.88;;
75542;SDS011;64129;53.508;10.476;2023-11-21T04:49:18;9.35;;;6.15;;
75542;SDS011;64129;53.508;10.476;2023-11-21T04:51:45;8.20;;;6.00;;
75542;SDS011;64129;53.508;10.476;2023-11-21T04:54:11;10.50;;;6.18;;
75542;SDS011;64129;53.508;10.476;2023-11-21T04:56:38;9.70;;;6.20;;
75542;SDS011;64129;53.508;10.476;2023-11-21T04:59:04;8.90;;;6.57;;
75542;SDS011;64129;53.508;10.476;2023-11-21T05:01:30;10.90;;;5.97;;
75542;SDS011;64129;53.508;10.476;2023-11-21T05:03:57;10.13;;;5.80;;
75542;SDS011;64129;53.508;10.476;2023-11-21T05:06:23;7.57;;;6.05;;
75542;SDS011;64129;53.508;10.476;2023-11-21T05:08:50;8.48;;;6.75;;
75542;SDS011;64129;53.508;10.476;2023-11-21T05:11:23;8.35;;;6.30;;
75542;SDS011;64129;53.508;10.476;2023-11-21T05:13:53;9.95;;;6.40;;
75542;SDS011;64129;53.508;10.476;2023-11-21T05:16:22;10.38;;;6.35;;
75542;SDS011;64129;53.508;10.476;2023-11-21T05:18:49;10.38;;;6.45;;
75542;SDS011;64129;53.508;10.476;2023-11-21T05:21:16;9.18;;;5.97;;
75542;SDS011;64129;53.508;10.476;2023-11-21T05:23:43;7.70;;;5.85;;
75542;SDS011;64129;53.508;10.476;2023-11-21T05:26:09;10.45;;;6.60;;
75542;SDS011;64129;53.508;10.476;2023-11-21T05:28:36;8.80;;;6.22;;
75542;SDS011;64129;53.508;10.476;2023-11-21T05:31:03;7.55;;;6.00;;
75542;SDS011;64129;53.508;10.476;2023-11-21T05:33:32;10.32;;;7.03;;
75542;SDS011;64129;53.508;10.476;2023-11-21T05:35:59;11.00;;;6.88;;
75542;SDS011;64129;53.508;10.476;2023-11-21T05:38:26;9.52;;;6.13;;
75542;SDS011;64129;53.508;10.476;2023-11-21T05:40:53;10.48;;;6.78;;
75542;SDS011;64129;53.508;10.476;2023-11-21T05:43:19;9.68;;;6.40;;
75542;SDS011;64129;53.508;10.476;2023-11-21T05:45:46;10.70;;;6.50;;
75542;SDS011;64129;53.508;10.476;2023-11-21T05:48:12;11.93;;;7.20;;
75542;SDS011;64129;53.508;10.476;2023-11-21T05:50:39;10.32;;;7.20;;
75542;SDS011;64129;53.508;10.476;2023-11-21T05:53:05;11.88;;;7.75;;
75542;SDS011;64129;53.508;10.476;2023-11-21T05:55:32;8.75;;;6.53;;
75542;SDS011;64129;53.508;10.476;2023-11-21T05:57:59;10.10;;;6.88;;
75542;SDS011;64129;53.508;10.476;2023-11-21T06:00:25;10.73;;;7.25;;
75542;SDS011;64129;53.508;10.476;2023-11-21T06:02:53;10.20;;;7.47;;
75542;SDS011;64129;53.508;10.476;2023-11-21T06:05:21;10.75;;;7.20;;
75542;SDS011;64129;53.508;10.476;2023-11-21T06:07:50;10.80;;;7.55;;
75542;SDS011;64129;53.508;10.476;2023-11-21T06:10:17;11.60;;;7.43;;
75542;SDS011;64129;53.508;10.476;2023-11-21T06:12:45;10.32;;;7.65;;
75542;SDS011;64129;53.508;10.476;2023-11-21T06:15:12;10.43;;;6.45;;
75542;SDS011;64129;53.508;10.476;2023-11-21T06:17:42;10.60;;;7.20;;
75542;SDS011;64129;53.508;10.476;2023-11-21T06:20:09;9.48;;;7.13;;
75542;SDS011;64129;53.508;10.476;2023-11-21T06:22:40;12.70;;;7.65;;
75542;SDS011;64129;53.508;10.476;2023-11-21T06:25:08;9.00;;;7.55;;
75542;SDS011;64129;53.508;10.476;2023-11-21T06:27:39;9.48;;;6.72;;
75542;SDS011;64129;53.508;10.476;2023-11-21T06:30:08;12.27;;;7.78;;
75542;SDS011;64129;53.508;10.476;2023-11-21T06:35:03;11.68;;;7.07;;
75542;SDS011;64129;53.508;10.476;2023-11-21T06:37:30;12.00;;;7.80;;
75542;SDS011;64129;53.508;10.476;2023-11-21T06:39:58;10.25;;;7.22;;
75542;SDS011;64129;53.508;10.476;2023-11-21T06:44:53;11.85;;;8.27;;
75542;SDS011;64129;53.508;10.476;2023-11-21T06:47:25;10.52;;;7.35;;
75542;SDS011;64129;53.508;10.476;2023-11-21T06:49:52;12.27;;;7.40;;
75542;SDS011;64129;53.508;10.476;2023-11-21T06:52:19;13.85;;;8.43;;
75542;SDS011;64129;53.508;10.476;2023-11-21T06:54:47;11.93;;;7.57;;
75542;SDS011;64129;53.508;10.476;2023-11-21T06:57:15;13.85;;;9.25;;
75542;SDS011;64129;53.508;10.476;2023-11-21T06:59:42;11.32;;;8.10;;
75542;SDS011;64129;53.508;10.476;2023-11-21T07:02:08;11.45;;;7.70;;
75542;SDS011;64129;53.508;10.476;2023-11-21T07:04:35;14.57;;;8.07;;
75542;SDS011;64129;53.508;10.476;2023-11-21T07:07:02;12.27;;;8.15;;
75542;SDS011;64129;53.508;10.476;2023-11-21T07:09:30;13.45;;;8.55;;
75542;SDS011;64129;53.508;10.476;2023-11-21T07:11:57;13.10;;;8.82;;
75542;SDS011;64129;53.508;10.476;2023-11-21T07:14:23;13.98;;;8.48;;
75542;SDS011;64129;53.508;10.476;2023-11-21T07:16:50;11.80;;;8.13;;
75542;SDS011;64129;53.508;10.476;2023-11-21T07:19:18;15.07;;;8.45;;
75542;SDS011;64129;53.508;10.476;2023-11-21T07:21:46;11.18;;;7.35;;
75542;SDS011;64129;53.508;10.476;2023-11-21T07:24:12;11.60;;;7.85;;
75542;SDS011;64129;53.508;10.476;2023-11-21T07:26:39;10.20;;;8.00;;
75542;SDS011;64129;53.508;10.476;2023-11-21T07:29:06;11.75;;;8.00;;
75542;SDS011;64129;53.508;10.476;2023-11-21T07:31:33;12.45;;;8.07;;
75542;SDS011;64129;53.508;10.476;2023-11-21T07:34:02;12.98;;;8.15;;
75542;SDS011;64129;53.508;10.476;2023-11-21T07:36:28;16.52;;;8.07;;
75542;SDS011;64129;53.508;10.476;2023-11-21T07:38:55;12.48;;;8.18;;
75542;SDS011;64129;53.508;10.476;2023-11-21T07:41:22;15.10;;;7.63;;
75542;SDS011;64129;53.508;10.476;2023-11-21T07:43:50;15.57;;;8.50;;
75542;SDS011;64129;53.508;10.476;2023-11-21T07:46:17;13.45;;;7.93;;
75542;SDS011;64129;53.508;10.476;2023-11-21T07:48:44;13.60;;;8.57;;
75542;SDS011;64129;53.508;10.476;2023-11-21T07:51:12;10.27;;;7.18;;
75542;SDS011;64129;53.508;10.476;2023-11-21T07:53:39;11.23;;;7.60;;
75542;SDS011;64129;53.508;10.476;2023-11-21T07:56:06;12.23;;;8.25;;
75542;SDS011;64129;53.508;10.476;2023-11-21T07:58:35;11.57;;;8.25;;
75542;SDS011;64129;53.508;10.476;2023-11-21T08:01:05;12.07;;;6.93;;
75542;SDS011;64129;53.508;10.476;2023-11-21T08:03:31;9.07;;;6.93;;
75542;SDS011;64129;53.508;10.476;2023-11-21T08:05:58;13.00;;;8.15;;
75542;SDS011;64129;53.508;10.476;2023-11-21T08:08:26;11.85;;;7.32;;
75542;SDS011;64129;53.508;10.476;2023-11-21T08:10:52;11.50;;;7.80;;
75542;SDS011;64129;53.508;10.476;2023-11-21T08:13:23;9.25;;;7.22;;
75542;SDS011;64129;53.508;10.476;2023-11-21T08:15:50;13.55;;;7.95;;
75542;SDS011;64129;53.508;10.476;2023-11-21T08:18:16;11.23;;;7.93;;
75542;SDS011;64129;53.508;10.476;2023-11-21T08:20:44;9.65;;;6.53;;
75542;SDS011;64129;53.508;10.476;2023-11-21T08:23:14;10.13;;;7.35;;
75542;SDS011;64129;53.508;10.476;2023-11-21T08:25:44;10.50;;;6.85;;
75542;SDS011;64129;53.508;10.476;2023-11-21T08:28:12;10.23;;;6.20;;
75542;SDS011;64129;53.508;10.476;2023-11-21T08:30:41;10.25;;;6.30;;
75542;SDS011;64129;53.508;10.476;2023-11-21T08:33:08;8.00;;;5.97;;
75542;SDS011;64129;53.508;10.476;2023-11-21T08:35:35;7.20;;;5.05;;
75542;SDS011;64129;53.508;10.476;2023-11-21T08:38:02;6.32;;;4.70;;
75542;SDS011;64129;53.508;10.476;2023-11-21T08:40:29;8.13;;;5.70;;
75542;SDS011;64129;53.508;10.476;2023-11-21T08:42:56;7.75;;;5.70;;
75542;SDS011;64129;53.508;10.476;2023-11-21T08:45:25;7.63;;;5.93;;
75542;SDS011;64129;53.508;10.476;2023-11-21T08:47:55;8.30;;;5.78;;
75542;SDS011;64129;53.508;10.476;2023-11-21T08:50:21;7.38;;;5.82;;
75542;SDS011;64129;53.508;10.476;2023-11-21T08:52:48;7.65;;;6.18;;
75542;SDS011;64129;53.508;10.476;2023-11-21T08:55:14;5.90;;;4.53;;
75542;SDS011;64129;53.508;10.476;2023-11-21T08:57:43;7.43;;;5.20;;
75542;SDS011;64129;53.508;10.476;2023-11-21T09:00:11;7.03;;;4.88;;
75542;SDS011;64129;53.508;10.476;2023-11-21T09:02:39;8.05;;;5.47;;
75542;SDS011;64129;53.508;10.476;2023-11-21T09:05:08;6.15;;;4.72;;
75542;SDS011;64129;53.508;10.476;2023-11-21T09:07:35;11.43;;;5.07;;
75542;SDS011;64129;53.508;10.476;2023-11-21T09:10:03;6.88;;;5.35;;
75542;SDS011;64129;53.508;10.476;2023-11-21T09:12:30;6.53;;;5.40;;
75542;SDS011;64129;53.508;10.476;2023-11-21T09:14:58;6.53;;;5.22;;
75542;SDS011;64129;53.508;10.476;2023-11-21T09:17:25;7.15;;;5.22;;
75542;SDS011;64129;53.508;10.476;2023-11-21T09:19:51;5.47;;;4.65;;
75542;SDS011;64129;53.508;10.476;2023-11-21T09:22:18;7.88;;;5.47;;
75542;SDS011;64129;53.508;10.476;2023-11-21T09:24:44;6.22;;;4.88;;
75542;SDS011;64129;53.508;10.476;2023-11-21T09:27:11;8.25;;;5.00;;
75542;SDS011;64129;53.508;10.476;2023-11-21T09:29:37;5.72;;;4.88;;
75542;SDS011;64129;53.508;10.476;2023-11-21T09:32:07;8.32;;;5.10;;
75542;SDS011;64129;53.508;10.476;2023-11-21T09:34:34;7.68;;;4.80;;
75542;SDS011;64129;53.508;10.476;2023-11-21T09:37:04;6.32;;;4.55;;
75542;SDS011;64129;53.508;10.476;2023-11-21T09:39:34;7.60;;;5.20;;
75542;SDS011;64129;53.508;10.476;2023-11-21T09:47:31;8.07;;;4.80;;
75542;SDS011;64129;53.508;10.476;2023-11-21T09:50:02;5.93;;;4.43;;
75542;SDS011;64129;53.508;10.476;2023-11-21T09:52:29;9.50;;;4.88;;
75542;SDS011;64129;53.508;10.476;2023-11-21T09:54:58;7.45;;;4.93;;
75542;SDS011;64129;53.508;10.476;2023-11-21T09:57:26;7.50;;;5.72;;
75542;SDS011;64129;53.508;10.476;2023-11-21T09:59:54;6.45;;;4.25;;
75542;SDS011;64129;53.508;10.476;2023-11-21T10:02:26;5.90;;;4.50;;
75542;SDS011;64129;53.508;10.476;2023-11-21T10:04:57;7.28;;;5.00;;
75542;SDS011;64129;53.508;10.476;2023-11-21T10:07:25;5.65;;;4.10;;
75542;SDS011;64129;53.508;10.476;2023-11-21T10:09:53;6.55;;;3.92;;
75542;SDS011;64129;53.508;10.476;2023-11-21T10:12:21;4.35;;;3.95;;
75542;SDS011;64129;53.508;10.476;2023-11-21T10:14:50;6.55;;;4.50;;
75542;SDS011;64129;53.508;10.476;2023-11-21T10:17:18;3.97;;;3.47;;
75542;SDS011;64129;53.508;10.476;2023-11-21T10:19:46;5.38;;;3.72;;
75542;SDS011;64129;53.508;10.476;2023-11-21T10:22:16;6.28;;;4.30;;
75542;SDS011;64129;53.508;10.476;2023-11-21T10:24:43;6.30;;;4.13;;
75542;SDS011;64129;53.508;10.476;2023-11-21T10:27:10;5.07;;;3.72;;
75542;SDS011;64129;53.508;10.476;2023-11-21T10:29:36;6.10;;;4.13;;
75542;SDS011;64129;53.508;10.476;2023-11-21T10:32:03;5.63;;;3.72;;
75542;SDS011;64129;53.508;10.476;2023-11-21T10:34:30;4.15;;;3.67;;
75542;SDS011;64129;53.508;10.476;2023-11-21T10:36:56;4.50;;;3.75;;
75542;SDS011;64129;53.508;10.476;2023-11-21T10:39:24;4.80;;;4.10;;
75542;SDS011;64129;53.508;10.476;2023-11-21T10:41:57;5.65;;;3.38;;
75542;SDS011;64129;53.508;10.476;2023-11-21T10:44:23;3.95;;;3.40;;
75542;SDS011;64129;53.508;10.476;2023-11-21T10:46:51;3.70;;;3.00;;
75542;SDS011;64129;53.508;10.476;2023-11-21T10:49:22;4.55;;;3.28;;
75542;SDS011;64129;53.508;10.476;2023-11-21T10:51:53;5.50;;;3.70;;
75542;SDS011;64129;53.508;10.476;2023-11-21T10:54:21;4.80;;;3.55;;
75542;SDS011;64129;53.508;10.476;2023-11-21T10:56:49;4.07;;;3.30;;
75542;SDS011;64129;53.508;10.476;2023-11-21T10:59:20;5.00;;;3.88;;
75542;SDS011;64129;53.508;10.476;2023-11-21T11:01:51;4.28;;;2.80;;
75542;SDS011;64129;53.508;10.476;2023-11-21T11:04:20;4.00;;;3.38;;
75542;SDS011;64129;53.508;10.476;2023-11-21T11:06:51;4.03;;;3.63;;
75542;SDS011;64129;53.508;10.476;2023-11-21T11:09:20;6.43;;;3.50;;
75542;SDS011;64129;53.508;10.476;2023-11-21T11:11:47;4.20;;;3.53;;
75542;SDS011;64129;53.508;10.476;2023-11-21T11:14:15;5.90;;;3.90;;
75542;SDS011;64129;53.508;10.476;2023-11-21T11:16:43;4.35;;;3.05;;
75542;SDS011;64129;53.508;10.476;2023-11-21T11:19:09;4.63;;;3.05;;
75542;SDS011;64129;53.508;10.476;2023-11-21T11:24:36;4.47;;;2.80;;
75542;SDS011;64129;53.508;10.476;2023-11-21T11:30:00;4.13;;;3.05;;
75542;SDS011;64129;53.508;10.476;2023-11-21T11:32:43;3.75;;;2.85;;
75542;SDS011;64129;53.508;10.476;2023-11-21T11:35:38;3.58;;;3.25;;
75542;SDS011;64129;53.508;10.476;2023-11-21T11:38:08;3.75;;;3.28;;
75542;SDS011;64129;53.508;10.476;2023-11-21T11:40:38;3.63;;;3.03;;
75542;SDS011;64129;53.508;10.476;2023-11-21T11:43:11;7.82;;;3.55;;
75542;SDS011;64129;53.508;10.476;2023-11-21T11:45:38;5.45;;;3.15;;
75542;SDS011;64129;53.508;10.476;2023-11-21T11:48:08;5.25;;;3.45;;
75542;SDS011;64129;53.508;10.476;2023-11-21T11:53:38;3.63;;;3.20;;
75542;SDS011;64129;53.508;10.476;2023-11-21T11:56:22;4.88;;;3.97;;
75542;SDS011;64129;53.508;10.476;2023-11-21T11:58:57;5.10;;;3.20;;
75542;SDS011;64129;53.508;10.476;2023-11-21T12:01:25;6.13;;;3.50;;
75542;SDS011;64129;53.508;10.476;2023-11-21T12:06:41;6.43;;;3.78;;
75542;SDS011;64129;53.508;10.476;2023-11-21T12:09:21;6.13;;;3.58;;
75542;SDS011;64129;53.508;10.476;2023-11-21T12:14:16;4.45;;;3.47;;
75542;SDS011;64129;53.508;10.476;2023-11-21T12:16:43;4.07;;;3.47;;
75542;SDS011;64129;53.508;10.476;2023-11-21T12:19:10;5.15;;;3.25;;
75542;SDS011;64129;53.508;10.476;2023-11-21T12:21:38;3.88;;;3.47;;
75542;SDS011;64129;53.508;10.476;2023-11-21T12:24:07;4.00;;;3.53;;
75542;SDS011;64129;53.508;10.476;2023-11-21T12:26:40;4.65;;;3.67;;
75542;SDS011;64129;53.508;10.476;2023-11-21T12:29:06;3.42;;;3.10;;
75542;SDS011;64129;53.508;10.476;2023-11-21T12:31:36;5.25;;;3.25;;
75542;SDS011;64129;53.508;10.476;2023-11-21T12:34:04;5.50;;;3.83;;
75542;SDS011;64129;53.508;10.476;2023-11-21T12:36:32;6.60;;;3.40;;
75542;SDS011;64129;53.508;10.476;2023-11-21T12:39:00;4.60;;;3.42;;
75542;SDS011;64129;53.508;10.476;2023-11-21T12:41:29;5.00;;;3.55;;
75542;SDS011;64129;53.508;10.476;2023-11-21T12:43:56;5.78;;;3.60;;
75542;SDS011;64129;53.508;10.476;2023-11-21T12:46:23;6.75;;;3.92;;
75542;SDS011;64129;53.508;10.476;2023-11-21T12:48:53;4.30;;;3.58;;
75542;SDS011;64129;53.508;10.476;2023-11-21T12:51:20;4.43;;;3.88;;
75542;SDS011;64129;53.508;10.476;2023-11-21T12:53:48;5.05;;;3.90;;
75542;SDS011;64129;53.508;10.476;2023-11-21T12:56:15;4.97;;;4.20;;
75542;SDS011;64129;53.508;10.476;2023-11-21T12:58:44;4.90;;;3.85;;
75542;SDS011;64129;53.508;10.476;2023-11-21T13:01:17;4.75;;;3.67;;
75542;SDS011;64129;53.508;10.476;2023-11-21T13:03:48;3.72;;;3.30;;
75542;SDS011;64129;53.508;10.476;2023-11-21T13:06:18;3.80;;;3.50;;
75542;SDS011;64129;53.508;10.476;2023-11-21T13:08:46;4.75;;;3.60;;
75542;SDS011;64129;53.508;10.476;2023-11-21T13:11:13;4.25;;;3.47;;
75542;SDS011;64129;53.508;10.476;2023-11-21T13:13:41;4.32;;;3.60;;
75542;SDS011;64129;53.508;10.476;2023-11-21T13:16:11;4.10;;;3.45;;
75542;SDS011;64129;53.508;10.476;2023-11-21T13:18:39;5.13;;;3.40;;
75542;SDS011;64129;53.508;10.476;2023-11-21T13:21:08;4.00;;;3.60;;
75542;SDS011;64129;53.508;10.476;2023-11-21T13:23:40;5.40;;;3.33;;
75542;SDS011;64129;53.508;10.476;2023-11-21T13:26:08;4.32;;;3.80;;
75542;SDS011;64129;53.508;10.476;2023-11-21T13:28:35;4.97;;;3.58;;
75542;SDS011;64129;53.508;10.476;2023-11-21T13:38:35;4.70;;;2.92;;
75542;SDS011;64129;53.508;10.476;2023-11-21T13:41:03;4.60;;;3.17;;
75542;SDS011;64129;53.508;10.476;2023-11-21T13:43:33;4.55;;;3.55;;
75542;SDS011;64129;53.508;10.476;2023-11-21T13:46:00;4.95;;;3.67;;
75542;SDS011;64129;53.508;10.476;2023-11-21T13:48:39;4.75;;;3.70;;
75542;SDS011;64129;53.508;10.476;2023-11-21T13:51:22;6.13;;;3.60;;
75542;SDS011;64129;53.508;10.476;2023-11-21T13:53:57;5.20;;;3.60;;
75542;SDS011;64129;53.508;10.476;2023-11-21T13:56:24;6.28;;;3.38;;
75542;SDS011;64129;53.508;10.476;2023-11-21T13:58:52;5.00;;;3.67;;
75542;SDS011;64129;53.508;10.476;2023-11-21T14:01:23;4.78;;;3.28;;
75542;SDS011;64129;53.508;10.476;2023-11-21T14:03:56;4.45;;;3.45;;
75542;SDS011;64129;53.508;10.476;2023-11-21T14:06:28;5.07;;;3.10;;
75542;SDS011;64129;53.508;10.476;2023-11-21T14:09:00;5.57;;;3.25;;
75542;SDS011;64129;53.508;10.476;2023-11-21T14:11:31;3.90;;;3.40;;
75542;SDS011;64129;53.508;10.476;2023-11-21T14:14:01;5.80;;;3.28;;
75542;SDS011;64129;53.508;10.476;2023-11-21T14:16:28;4.38;;;3.53;;
75542;SDS011;64129;53.508;10.476;2023-11-21T14:18:55;3.90;;;3.47;;
75542;SDS011;64129;53.508;10.476;2023-11-21T14:21:39;3.72;;;3.33;;
75542;SDS011;64129;53.508;10.476;2023-11-21T14:24:09;4.38;;;3.25;;
75542;SDS011;64129;53.508;10.476;2023-11-21T14:26:35;4.20;;;3.50;;
75542;SDS011;64129;53.508;10.476;2023-11-21T14:29:02;5.30;;;3.22;;
75542;SDS011;64129;53.508;10.476;2023-11-21T14:31:29;3.38;;;3.08;;
75542;SDS011;64129;53.508;10.476;2023-11-21T14:33:58;5.57;;;2.92;;
75542;SDS011;64129;53.508;10.476;2023-11-21T14:36:25;5.05;;;3.13;;
75542;SDS011;64129;53.508;10.476;2023-11-21T14:38:52;4.97;;;3.53;;
75542;SDS011;64129;53.508;10.476;2023-11-21T14:41:18;4.72;;;3.13;;
75542;SDS011;64129;53.508;10.476;2023-11-21T14:43:45;3.70;;;2.40;;
75542;SDS011;64129;53.508;10.476;2023-11-21T14:46:15;4.15;;;2.80;;
75542;SDS011;64129;53.508;10.476;2023-11-21T14:48:45;3.60;;;2.90;;
75542;SDS011;64129;53.508;10.476;2023-11-21T14:51:24;4.47;;;3.28;;
75542;SDS011;64129;53.508;10.476;2023-11-21T14:54:11;4.47;;;3.28;;
75542;SDS011;64129;53.508;10.476;2023-11-21T14:56:38;3.55;;;2.97;;
75542;SDS011;64129;53.508;10.476;2023-11-21T14:59:05;4.40;;;3.45;;
75542;SDS011;64129;53.508;10.476;2023-11-21T15:01:42;5.03;;;3.22;;
75542;SDS011;64129;53.508;10.476;2023-11-21T15:04:18;3.70;;;2.85;;
75542;SDS011;64129;53.508;10.476;2023-11-21T15:07:02;3.25;;;2.35;;
75542;SDS011;64129;53.508;10.476;2023-11-21T15:09:30;3.30;;;2.40;;
75542;SDS011;64129;53.508;10.476;2023-11-21T15:12:01;3.65;;;2.25;;